Time;durP1;ratioP1;P1;durP2;ratioP2;P2;SDS_P1;SDS_P2;PMS_P1;PMS_P2;Temp;Humidity;BMP_temperature;BMP_pressure;BME280_temperature;BME280_humidity;BME280_pressure;Samples;Min_cycle;Max_cycle;Signal;HPM_P1;HPM_P2
2023/11/05 00:02:15;;;;;;;3.33;2.50;;;;;;;22.17;60.10;94399.59;5014285;28;20735;-26
2023/11/05 00:04:41;;;;;;;2.60;2.20;;;;;;;22.17;59.96;94396.22;5015189;28;20704;-27
2023/11/05 00:07:08;;;;;;;2.80;2.40;;;;;;;22.17;60.08;94391.09;5016170;28;20668;-26
2023/11/05 00:09:35;;;;;;;3.03;2.27;;;;;;;22.16;59.86;94394.53;5018009;28;20229;-28
2023/11/05 00:12:02;;;;;;;3.27;2.43;;;;;;;22.17;60.02;94373.22;5013928;28;20198;-28
2023/11/05 00:14:29;;;;;;;2.30;2.10;;;;;;;22.17;60.05;94374.03;5025504;28;20228;-26
2023/11/05 00:16:56;;;;;;;2.53;2.30;;;;;;;22.17;60.05;94365.53;5014596;28;20268;-28
2023/11/05 00:19:22;;;;;;;2.57;2.37;;;;;;;22.17;60.04;94378.31;5023512;28;20292;-27
2023/11/05 00:21:49;;;;;;;9.43;2.60;;;;;;;22.16;60.18;94366.38;5015698;28;20202;-26
2023/11/05 00:24:17;;;;;;;2.97;2.33;;;;;;;22.17;60.09;94361.25;5017202;28;20225;-26
2023/11/05 00:26:44;;;;;;;4.03;2.60;;;;;;;22.17;60.16;94363.81;5016666;28;20222;-26
2023/11/05 00:29:14;;;;;;;2.13;1.93;;;;;;;22.18;60.03;94359.53;5015774;28;20598;-26
2023/11/05 00:31:44;;;;;;;2.50;2.30;;;;;;;22.15;60.25;94341.69;5017517;28;20228;-26
2023/11/05 00:34:11;;;;;;;2.83;2.30;;;;;;;22.12;60.09;94329.00;5014114;28;20612;-26
2023/11/05 00:36:38;;;;;;;2.40;2.20;;;;;;;22.17;60.08;94339.97;5016499;28;20198;-26
2023/11/05 00:39:05;;;;;;;2.33;2.13;;;;;;;22.17;60.21;94347.63;5011130;28;20206;-30
2023/11/05 00:41:32;;;;;;;2.40;2.20;;;;;;;22.18;59.95;94341.63;5014871;28;20292;-26
2023/11/05 00:43:59;;;;;;;2.70;2.40;;;;;;;22.17;60.19;94340.78;5019855;28;20197;-28
2023/11/05 00:46:25;;;;;;;2.90;2.17;;;;;;;22.17;60.25;94338.22;5020739;28;20210;-26
2023/11/05 00:48:52;;;;;;;2.33;2.13;;;;;;;22.17;59.91;94324.63;5013839;28;20199;-27
2023/11/05 00:51:19;;;;;;;2.40;2.07;;;;;;;22.17;60.18;94317.75;5020080;28;20222;-27
2023/11/05 00:53:46;;;;;;;2.67;1.90;;;;;;;22.17;60.19;94311.84;5017423;28;20222;-26
2023/11/05 00:56:12;;;;;;;2.93;2.20;;;;;;;22.17;60.18;94315.22;5018952;28;20665;-26
2023/11/05 00:58:39;;;;;;;3.17;2.40;;;;;;;22.16;60.04;94308.41;5015768;28;20233;-26
2023/11/05 01:01:05;;;;;;;2.67;2.27;;;;;;;22.14;60.27;94301.69;5018193;28;20222;-28
2023/11/05 01:03:32;;;;;;;2.10;1.90;;;;;;;22.17;60.33;94322.06;5003519;28;20667;-27
2023/11/05 01:05:59;;;;;;;2.67;2.27;;;;;;;22.18;60.20;94327.13;5018249;28;20209;-26
2023/11/05 01:08:26;;;;;;;2.10;1.93;;;;;;;22.17;60.19;94317.75;5013200;28;20571;-27
2023/11/05 01:10:52;;;;;;;2.23;2.03;;;;;;;22.18;60.28;94336.53;5013932;28;20226;-26
2023/11/05 01:13:19;;;;;;;3.43;2.37;;;;;;;22.18;60.19;94324.59;5019115;28;20218;-26
2023/11/05 01:15:45;;;;;;;2.67;1.83;;;;;;;22.18;60.18;94326.28;5015204;28;20229;-26
2023/11/05 01:18:12;;;;;;;2.97;2.40;;;;;;;22.18;60.16;94326.28;5015155;28;21325;-28
2023/11/05 01:20:38;;;;;;;2.43;2.13;;;;;;;22.18;60.17;94321.16;5021941;28;20222;-26
2023/11/05 01:23:05;;;;;;;3.30;2.17;;;;;;;22.18;60.26;94311.78;5017733;28;20245;-26
2023/11/05 01:25:32;;;;;;;2.57;2.10;;;;;;;22.17;60.13;94302.41;5019749;28;20245;-26
2023/11/05 01:27:58;;;;;;;2.43;2.17;;;;;;;22.17;60.32;94299.88;5017808;28;20672;-29
2023/11/05 01:30:25;;;;;;;2.30;2.10;;;;;;;22.17;60.22;94291.38;5014856;28;20692;-28
2023/11/05 01:32:52;;;;;;;2.30;1.90;;;;;;;22.17;60.30;94276.84;5011903;28;20271;-30
2023/11/05 01:35:18;;;;;;;2.10;1.90;;;;;;;22.17;60.16;94281.16;5021239;28;20265;-26
2023/11/05 01:37:45;;;;;;;2.57;1.90;;;;;;;22.17;60.20;94293.94;5012429;28;20194;-26
2023/11/05 01:40:12;;;;;;;3.13;2.07;;;;;;;22.17;60.41;94281.16;5017728;28;20284;-26
2023/11/05 01:42:38;;;;;;;2.47;1.70;;;;;;;22.17;60.26;94286.25;5016080;28;20234;-26
2023/11/05 01:45:05;;;;;;;2.23;2.03;;;;;;;22.17;60.21;94296.50;5018028;28;20238;-27
2023/11/05 01:47:32;;;;;;;1.70;1.60;;;;;;;22.18;60.26;94293.03;5012352;28;20222;-26
2023/11/05 01:49:59;;;;;;;2.20;2.00;;;;;;;22.16;60.27;94298.19;5017668;28;20313;-26
2023/11/05 01:52:25;;;;;;;2.40;1.97;;;;;;;22.18;60.18;94293.03;5012885;28;20202;-28
2023/11/05 01:54:53;;;;;;;2.57;2.10;;;;;;;22.18;60.24;94285.38;4998854;28;20222;-26
2023/11/05 01:57:20;;;;;;;2.23;1.97;;;;;;;22.19;60.33;94284.47;5018596;28;20198;-27
2023/11/05 01:59:46;;;;;;;2.57;2.07;;;;;;;22.18;60.17;94281.09;5010919;28;20228;-27
2023/11/05 02:02:14;;;;;;;2.47;1.93;;;;;;;22.18;60.26;94288.78;5017631;28;20300;-26
2023/11/05 02:04:40;;;;;;;2.53;2.20;;;;;;;22.19;60.26;94284.47;5001007;28;20194;-28
2023/11/05 02:07:07;;;;;;;2.37;2.17;;;;;;;22.11;60.34;94271.88;5019636;28;20626;-26
2023/11/05 02:09:33;;;;;;;2.60;2.00;;;;;;;22.18;60.20;94276.00;5015250;28;20201;-26
2023/11/05 02:12:00;;;;;;;1.87;1.77;;;;;;;22.17;60.33;94279.41;5012807;28;20206;-28
2023/11/05 02:14:27;;;;;;;2.07;1.90;;;;;;;22.17;59.96;94273.47;5012355;28;20647;-27
2023/11/05 02:16:53;;;;;;;3.37;2.40;;;;;;;22.17;60.15;94281.97;5015739;28;20292;-26
2023/11/05 02:19:20;;;;;;;2.40;2.13;;;;;;;22.17;60.20;94292.19;5016359;28;20202;-26
2023/11/05 02:21:48;;;;;;;2.00;1.80;;;;;;;22.17;60.40;94276.84;5018398;28;20214;-27
2023/11/05 02:24:15;;;;;;;2.20;1.80;;;;;;;22.18;60.44;94280.25;5007076;28;20226;-28
2023/11/05 02:26:41;;;;;;;2.20;1.70;;;;;;;22.16;60.37;94275.19;5017922;28;20616;-26
2023/11/05 02:29:08;;;;;;;2.07;1.80;;;;;;;22.18;60.31;94276.00;5016782;28;20636;-26
2023/11/05 02:31:34;;;;;;;2.17;1.97;;;;;;;22.18;60.41;94264.91;5022447;28;20221;-26
2023/11/05 02:34:02;;;;;;;1.97;1.87;;;;;;;22.18;60.27;94265.75;5025710;28;20309;-26
2023/11/05 02:36:28;;;;;;;1.90;1.73;;;;;;;22.19;60.81;94264.03;5019937;28;20249;-26
2023/11/05 02:38:55;;;;;;;1.93;1.73;;;;;;;22.20;60.34;94263.16;5026121;28;20201;-29
2023/11/05 02:41:22;;;;;;;2.00;1.80;;;;;;;22.19;60.34;94258.91;5017228;28;20280;-31
2023/11/05 02:43:48;;;;;;;2.00;1.77;;;;;;;22.19;60.22;94258.91;5019989;28;20199;-26
2023/11/05 02:46:15;;;;;;;2.37;1.83;;;;;;;22.18;60.24;94263.19;5015423;28;20268;-32
2023/11/05 02:48:41;;;;;;;1.93;1.80;;;;;;;22.19;60.32;94264.03;5017901;28;20596;-29
2023/11/05 02:51:09;;;;;;;2.20;1.70;;;;;;;22.18;60.24;94252.97;5015730;28;20275;-27
2023/11/05 02:53:35;;;;;;;2.97;1.90;;;;;;;22.18;60.23;94258.09;5020820;28;20208;-26
2023/11/05 02:56:03;;;;;;;2.00;1.80;;;;;;;22.19;60.26;94253.78;5024952;28;20267;-27
2023/11/05 02:58:30;;;;;;;2.40;2.10;;;;;;;22.18;60.38;94247.84;5018659;28;20739;-29
2023/11/05 03:00:56;;;;;;;2.00;1.80;;;;;;;22.18;60.45;94254.69;5025043;28;20313;-27
2023/11/05 03:03:23;;;;;;;2.13;1.93;;;;;;;22.18;60.28;94247.84;5016654;28;20205;-26
2023/11/05 03:05:50;;;;;;;1.80;1.70;;;;;;;22.18;60.44;94247.84;5023841;28;20288;-29
2023/11/05 03:08:16;;;;;;;3.43;1.80;;;;;;;22.19;60.17;94248.69;5015797;28;20593;-27
2023/11/05 03:10:43;;;;;;;1.80;1.70;;;;;;;22.19;60.26;94246.13;5017819;28;20713;-27
2023/11/05 03:13:10;;;;;;;1.90;1.70;;;;;;;22.19;60.27;94235.88;5015108;28;20328;-26
2023/11/05 03:15:36;;;;;;;1.67;1.57;;;;;;;22.19;60.41;94231.63;5018916;28;20225;-28
2023/11/05 03:18:03;;;;;;;2.50;1.97;;;;;;;22.19;60.61;94218.00;5023918;28;20202;-26
2023/11/05 03:20:30;;;;;;;2.03;1.83;;;;;;;22.11;60.03;94207.13;5016765;28;20784;-26
2023/11/05 03:22:57;;;;;;;2.13;1.70;;;;;;;22.19;60.27;94215.44;5024699;28;20217;-27
2023/11/05 03:25:24;;;;;;;2.10;1.83;;;;;;;22.17;60.26;94209.53;5015156;28;20238;-26
2023/11/05 03:27:51;;;;;;;2.00;1.80;;;;;;;22.18;60.13;94208.66;5020852;28;20208;-26
2023/11/05 03:30:18;;;;;;;2.23;2.03;;;;;;;22.19;60.13;94203.50;5014937;28;20319;-27
2023/11/05 03:32:44;;;;;;;2.17;1.97;;;;;;;22.18;60.38;94199.28;5015603;28;20257;-26
2023/11/05 03:35:11;;;;;;;1.77;1.67;;;;;;;22.18;60.39;94196.72;5018274;28;20253;-33
2023/11/05 03:37:38;;;;;;;1.97;1.77;;;;;;;22.18;60.45;94188.19;5014533;28;20202;-26
2023/11/05 03:40:06;;;;;;;1.93;1.80;;;;;;;22.17;60.38;94183.97;5017392;28;20222;-26
2023/11/05 03:42:32;;;;;;;1.70;1.60;;;;;;;22.19;60.26;94180.47;5022260;28;20202;-26
2023/11/05 03:44:59;;;;;;;2.10;1.90;;;;;;;22.18;60.33;94178.81;5018141;28;20202;-26
2023/11/05 03:47:26;;;;;;;2.10;1.80;;;;;;;22.18;60.47;94181.38;5018201;28;20260;-27
2023/11/05 03:49:53;;;;;;;2.00;1.60;;;;;;;22.18;60.38;94158.34;5014422;28;20222;-27
2023/11/05 03:52:20;;;;;;;2.10;1.90;;;;;;;22.17;60.11;94156.66;5017189;28;20202;-26
2023/11/05 03:54:47;;;;;;;1.70;1.60;;;;;;;22.19;60.42;94152.34;5025309;28;20213;-27
2023/11/05 03:57:13;;;;;;;1.70;1.60;;;;;;;22.19;60.22;94147.22;5017434;28;20728;-26
2023/11/05 03:59:40;;;;;;;2.10;1.57;;;;;;;22.20;60.40;94140.41;5018773;28;20244;-26
2023/11/05 04:02:06;;;;;;;1.53;1.43;;;;;;;22.19;60.25;94139.56;5015041;28;20669;-29
2023/11/05 04:04:33;;;;;;;1.70;1.60;;;;;;;22.19;60.39;94137.00;5018421;28;20238;-26
2023/11/05 04:07:04;;;;;;;2.27;1.50;;;;;;;22.18;60.31;94131.94;5022364;28;20225;-33
2023/11/05 04:09:31;;;;;;;1.67;1.57;;;;;;;22.19;60.31;94136.16;5017194;28;20673;-26
2023/11/05 04:11:59;;;;;;;2.00;1.80;;;;;;;22.18;60.28;94131.94;5017822;28;20289;-26
2023/11/05 04:14:26;;;;;;;2.00;1.80;;;;;;;22.18;60.38;94134.47;5015561;28;20594;-27
2023/11/05 04:16:52;;;;;;;1.70;1.60;;;;;;;22.17;60.35;94128.53;5013930;28;20253;-26
2023/11/05 04:19:19;;;;;;;2.07;1.80;;;;;;;22.16;60.33;94129.41;5014129;28;20239;-26
2023/11/05 04:21:45;;;;;;;1.80;1.67;;;;;;;22.18;60.38;94116.59;5016847;28;20222;-27
2023/11/05 04:24:13;;;;;;;1.93;1.67;;;;;;;22.18;60.49;94117.44;5021839;28;20233;-26
2023/11/05 04:26:39;;;;;;;1.80;1.70;;;;;;;22.18;60.28;94114.88;5018044;28;20202;-28
2023/11/05 04:29:06;;;;;;;2.03;1.73;;;;;;;22.18;60.33;94109.75;5016574;28;20198;-26
2023/11/05 04:31:33;;;;;;;1.50;1.40;;;;;;;22.18;60.45;94104.66;5018796;28;20218;-26
2023/11/05 04:34:01;;;;;;;1.60;1.50;;;;;;;22.19;60.42;94111.44;5023273;28;20206;-26
2023/11/05 04:36:27;;;;;;;1.60;1.50;;;;;;;22.20;60.43;94114.84;5010557;28;20206;-26
2023/11/05 04:38:54;;;;;;;1.80;1.67;;;;;;;22.20;60.32;94109.72;5016006;28;20668;-28
2023/11/05 04:41:21;;;;;;;2.03;1.70;;;;;;;22.19;60.30;94101.19;5021881;28;20600;-27
2023/11/05 04:43:48;;;;;;;2.23;1.60;;;;;;;22.19;60.39;94097.78;5014903;28;20248;-29
2023/11/05 04:46:15;;;;;;;1.50;1.40;;;;;;;22.19;60.20;94100.34;5020033;28;20233;-29
2023/11/05 04:48:41;;;;;;;1.87;1.50;;;;;;;22.19;60.42;94101.19;5014304;28;20194;-26
2023/11/05 04:51:09;;;;;;;1.77;1.67;;;;;;;22.18;60.33;94085.91;5019106;28;20251;-28
2023/11/05 04:53:36;;;;;;;1.80;1.60;;;;;;;22.19;60.29;94092.69;5013512;28;20198;-26
2023/11/05 04:56:03;;;;;;;1.77;1.67;;;;;;;22.18;60.31;94094.41;5015723;28;20226;-27
2023/11/05 04:58:30;;;;;;;2.47;1.83;;;;;;;22.19;60.20;94085.00;5004868;28;20198;-27
2023/11/05 05:00:57;;;;;;;1.60;1.50;;;;;;;22.19;60.23;94090.13;5018115;28;20594;-28
2023/11/05 05:03:23;;;;;;;2.00;1.50;;;;;;;22.19;60.28;94092.69;5020686;28;20205;-29
2023/11/05 05:05:50;;;;;;;1.60;1.50;;;;;;;22.10;60.24;94069.91;5014421;28;20576;-26
2023/11/05 05:08:17;;;;;;;1.50;1.40;;;;;;;22.19;60.31;94085.00;5014901;28;20445;-26
2023/11/05 05:10:43;;;;;;;1.60;1.50;;;;;;;22.20;60.33;94076.47;5012956;28;20241;-28
2023/11/05 05:13:10;;;;;;;1.57;1.40;;;;;;;22.18;60.40;94085.91;5018625;28;20206;-27
2023/11/05 05:15:36;;;;;;;1.70;1.60;;;;;;;22.19;60.40;94082.44;5012025;28;20225;-26
2023/11/05 05:18:03;;;;;;;1.57;1.47;;;;;;;22.19;60.22;94072.22;5014833;28;20241;-26
2023/11/05 05:20:30;;;;;;;1.43;1.33;;;;;;;22.19;60.32;94079.88;5013077;28;20241;-26
2023/11/05 05:22:57;;;;;;;1.60;1.50;;;;;;;22.18;60.38;94079.06;5014954;28;20261;-27
2023/11/05 05:25:24;;;;;;;1.63;1.53;;;;;;;22.17;60.41;94079.94;5014211;28;20536;-26
2023/11/05 05:27:51;;;;;;;1.73;1.63;;;;;;;22.18;60.35;94079.06;5011583;28;20202;-26
2023/11/05 05:30:18;;;;;;;1.40;1.30;;;;;;;22.18;60.34;94084.19;5018011;28;20700;-26
2023/11/05 05:32:45;;;;;;;1.63;1.50;;;;;;;22.18;60.21;94083.34;5020335;28;20199;-26
2023/11/05 05:35:12;;;;;;;1.80;1.70;;;;;;;22.18;60.16;94085.91;5017438;28;20218;-27
2023/11/05 05:37:39;;;;;;;1.57;1.47;;;;;;;22.19;60.28;94090.13;5019264;28;20260;-27
2023/11/05 05:40:06;;;;;;;1.47;1.37;;;;;;;22.18;60.22;94084.19;5019582;28;20280;-26
2023/11/05 05:42:32;;;;;;;1.50;1.40;;;;;;;22.17;60.26;94091.91;5023313;28;20233;-28
2023/11/05 05:44:59;;;;;;;1.40;1.30;;;;;;;22.18;60.46;94098.69;5012401;28;20619;-26
2023/11/05 05:47:26;;;;;;;1.80;1.70;;;;;;;22.18;60.39;94094.41;5020848;28;20205;-26
2023/11/05 05:49:53;;;;;;;1.60;1.50;;;;;;;22.19;60.38;94085.00;5012310;28;20704;-28
2023/11/05 05:52:19;;;;;;;1.57;1.47;;;;;;;22.18;60.26;94083.34;5018712;28;20206;-26
2023/11/05 05:54:46;;;;;;;1.30;1.20;;;;;;;22.18;60.39;94084.19;5015830;28;20225;-26
2023/11/05 05:57:12;;;;;;;1.67;1.57;;;;;;;22.18;60.40;94094.41;5012272;28;20256;-26
2023/11/05 05:59:39;;;;;;;1.50;1.40;;;;;;;22.19;60.27;94092.69;5015188;28;20269;-30
2023/11/05 06:02:07;;;;;;;1.80;1.70;;;;;;;22.16;60.22;94091.06;5016597;28;20237;-28
2023/11/05 06:04:35;;;;;;;1.53;1.43;;;;;;;22.16;60.41;94093.59;5013873;28;20202;-26
2023/11/05 06:07:02;;;;;;;1.60;1.50;;;;;;;22.16;60.39;94095.31;5012923;28;20221;-27
2023/11/05 06:09:29;;;;;;;1.53;1.43;;;;;;;22.17;60.32;94109.81;5019741;28;20201;-26
2023/11/05 06:11:56;;;;;;;1.60;1.50;;;;;;;22.16;60.28;94115.78;5015747;28;20213;-29
2023/11/05 06:14:23;;;;;;;1.67;1.40;;;;;;;22.16;60.20;94120.88;5012142;28;20209;-26
2023/11/05 06:17:06;;;;;;;1.53;1.43;;;;;;;22.16;60.43;94120.88;5014299;28;20291;-28
2023/11/05 06:19:32;;;;;;;1.60;1.50;;;;;;;22.15;60.36;94120.06;5019070;28;20579;-26
2023/11/05 06:21:59;;;;;;;1.30;1.20;;;;;;;22.15;60.38;94125.19;5016829;28;20276;-26
2023/11/05 06:24:26;;;;;;;1.70;1.60;;;;;;;22.15;60.04;94116.66;5016849;28;20209;-28
2023/11/05 06:26:52;;;;;;;1.80;1.70;;;;;;;22.14;58.06;94117.56;5017479;28;20252;-26
2023/11/05 06:29:19;;;;;;;1.77;1.67;;;;;;;22.14;56.92;94109.88;5015443;28;20261;-26
2023/11/05 06:31:45;;;;;;;1.83;1.63;;;;;;;22.12;54.35;94111.63;5017038;28;20780;-26
2023/11/05 06:34:12;;;;;;;1.40;1.30;;;;;;;22.10;52.50;94114.22;5015178;28;20297;-26
2023/11/05 06:37:01;;;;;;;1.20;1.20;;;;;;;22.10;51.41;94118.50;5020194;28;20253;-26
2023/11/05 06:39:28;;;;;;;1.77;1.40;;;;;;;22.08;50.72;94135.63;5015446;28;20198;-26
2023/11/05 06:41:55;;;;;;;1.40;1.30;;;;;;;;;;5012336;28;20226;-31
2023/11/05 06:44:21;;;;;;;2.03;1.30;;;;;;;22.06;49.00;94127.13;5020433;28;20222;-26
2023/11/05 06:46:48;;;;;;;1.40;1.30;;;;;;;22.03;48.43;94124.66;5019683;28;20256;-26
2023/11/05 06:49:19;;;;;;;1.50;1.40;;;;;;;22.02;47.87;94135.78;5016505;28;20209;-26
2023/11/05 06:51:45;;;;;;;2.77;1.23;;;;;;;22.02;48.72;94141.72;5019252;28;20224;-28
2023/11/05 06:54:13;;;;;;;1.20;1.20;;;;;;;22.01;49.66;94144.31;5017255;28;20583;-27
2023/11/05 06:56:39;;;;;;;1.30;1.20;;;;;;;22.01;50.74;94147.72;5018151;28;20250;-36
2023/11/05 06:59:07;;;;;;;3.83;1.20;;;;;;;22.00;51.70;94146.03;5014296;28;20202;-26
2023/11/05 07:01:34;;;;;;;1.40;1.30;;;;;;;22.00;52.25;94148.59;5015212;28;20230;-27
2023/11/05 07:04:01;;;;;;;1.40;1.30;;;;;;;22.01;52.65;94145.16;5014458;28;20205;-26
2023/11/05 07:06:28;;;;;;;1.27;1.17;;;;;;;22.01;53.03;94145.16;5009384;28;20262;-28
2023/11/05 07:08:56;;;;;;;1.30;1.20;;;;;;;22.01;53.62;94145.16;5014771;28;20206;-27
2023/11/05 07:11:22;;;;;;;1.40;1.30;;;;;;;22.01;53.89;94145.16;5016632;28;20254;-27
2023/11/05 07:13:49;;;;;;;1.00;1.00;;;;;;;22.02;54.25;94148.56;5014772;28;20684;-27
2023/11/05 07:16:15;;;;;;;2.17;1.60;;;;;;;22.02;54.55;94157.03;5007830;28;20281;-26
2023/11/05 07:18:42;;;;;;;1.40;1.10;;;;;;;22.02;54.87;94163.91;5009176;28;20752;-35
2023/11/05 07:21:14;;;;;;;2.80;1.30;;;;;;;22.02;54.86;94169.84;5015068;28;20222;-26
2023/11/05 07:23:41;;;;;;;1.87;1.40;;;;;;;22.01;55.08;94167.31;5024555;28;20699;-26
2023/11/05 07:26:08;;;;;;;1.10;1.10;;;;;;;22.02;54.93;94166.47;5022233;28;20198;-26
2023/11/05 07:28:34;;;;;;;1.07;1.07;;;;;;;22.02;54.97;94172.38;5020503;28;20210;-30
2023/11/05 07:31:01;;;;;;;1.10;1.10;;;;;;;22.02;55.35;94162.16;5020629;28;20272;-27
2023/11/05 07:33:28;;;;;;;1.20;1.10;;;;;;;22.02;55.55;94162.16;5018357;28;20202;-26
2023/11/05 07:35:54;;;;;;;1.67;1.10;;;;;;;22.03;55.78;94163.00;5020586;28;20230;-27
2023/11/05 07:38:26;;;;;;;1.20;1.10;;;;;;;22.03;55.78;94168.97;5017395;28;20246;-34
2023/11/05 07:40:53;;;;;;;2.10;1.27;;;;;;;22.04;55.92;94174.91;5014146;28;20222;-26
2023/11/05 07:43:19;;;;;;;1.00;1.00;;;;;;;22.06;55.94;94175.72;5016858;28;20206;-35
2023/11/05 07:45:46;;;;;;;2.70;1.13;;;;;;;22.01;56.08;94164.75;5016093;28;20592;-26
2023/11/05 07:48:12;;;;;;;1.13;1.03;;;;;;;22.06;56.17;94168.03;5010497;28;20205;-26
2023/11/05 07:50:39;;;;;;;1.20;1.10;;;;;;;22.06;56.59;94162.94;5013208;28;20253;-26
2023/11/05 07:53:05;;;;;;;0.90;0.90;;;;;;;;;;5016064;28;20210;-27
2023/11/05 07:55:32;;;;;;;1.00;1.00;;;;;;;22.06;56.49;94186.78;5012763;28;20697;-28
2023/11/05 07:57:58;;;;;;;1.00;1.00;;;;;;;22.06;56.65;94186.78;5014216;28;20202;-26
2023/11/05 08:00:25;;;;;;;1.93;1.10;;;;;;;22.07;56.69;94195.28;5014182;28;20253;-26
2023/11/05 08:02:52;;;;;;;1.97;1.20;;;;;;;22.08;56.55;94202.09;5013894;28;20207;-26
2023/11/05 08:05:18;;;;;;;1.97;1.23;;;;;;;22.08;56.55;94212.31;5013503;28;20245;-27
2023/11/05 08:07:45;;;;;;;1.10;1.10;;;;;;;22.07;56.68;94213.19;5013432;28;20209;-26
2023/11/05 08:10:13;;;;;;;1.10;1.10;;;;;;;;;;5014358;28;20245;-26
2023/11/05 08:12:40;;;;;;;1.07;1.07;;;;;;;22.08;56.81;94231.03;5015086;28;20289;-26
2023/11/05 08:15:09;;;;;;;1.53;1.20;;;;;;;22.08;56.92;94228.47;5013782;28;20234;-27
2023/11/05 08:17:39;;;;;;;1.30;1.20;;;;;;;22.08;56.92;94235.34;5013264;28;20225;-26
2023/11/05 08:20:06;;;;;;;1.10;1.10;;;;;;;22.08;57.06;94243.81;5011610;28;20253;-27
2023/11/05 08:22:33;;;;;;;1.20;1.10;;;;;;;22.08;56.88;94254.06;5016324;28;20680;-27
2023/11/05 08:25:00;;;;;;;1.27;1.20;;;;;;;22.09;57.13;94262.56;5022022;28;20202;-26
2023/11/05 08:27:27;;;;;;;1.00;1.00;;;;;;;22.08;57.07;94256.63;5015489;28;20202;-26
2023/11/05 08:29:53;;;;;;;2.70;1.23;;;;;;;22.09;57.04;94250.66;5013251;28;20268;-29
2023/11/05 08:32:21;;;;;;;1.17;1.10;;;;;;;22.10;57.19;94251.47;5014596;28;20257;-28
2023/11/05 08:34:47;;;;;;;1.40;1.30;;;;;;;22.10;57.19;94262.53;5018766;28;20202;-33
2023/11/05 08:37:14;;;;;;;1.17;1.10;;;;;;;22.11;57.40;94268.50;5020232;28;20318;-26
2023/11/05 08:39:41;;;;;;;1.60;1.33;;;;;;;22.10;57.28;94267.66;5020134;28;20607;-26
2023/11/05 08:42:08;;;;;;;1.40;1.30;;;;;;;22.11;57.28;94273.63;5018123;28;20268;-26
2023/11/05 08:44:34;;;;;;;1.10;1.03;;;;;;;22.10;57.42;94271.91;5015902;28;20206;-26
2023/11/05 08:47:01;;;;;;;1.20;1.10;;;;;;;22.11;57.25;94265.94;5015089;28;20221;-26
2023/11/05 08:49:28;;;;;;;1.23;1.17;;;;;;;22.11;57.43;94263.38;5021663;28;20200;-37
2023/11/05 08:51:57;;;;;;;1.07;1.03;;;;;;;22.11;57.23;94260.84;5014293;28;20651;-26
2023/11/05 08:54:24;;;;;;;1.37;1.23;;;;;;;22.12;57.35;94259.94;5021586;28;20201;-26
2023/11/05 08:56:50;;;;;;;1.13;1.07;;;;;;;22.11;57.54;94261.66;5012887;28;20264;-30
2023/11/05 08:59:17;;;;;;;1.20;1.10;;;;;;;22.11;57.35;94256.53;5011195;28;20201;-29
2023/11/05 09:01:43;;;;;;;1.67;1.20;;;;;;;22.11;57.42;94259.09;5015223;28;20258;-26
2023/11/05 09:04:10;;;;;;;1.43;1.10;;;;;;;22.11;57.42;94248.03;5010124;28;20198;-26
2023/11/05 09:06:37;;;;;;;1.20;1.10;;;;;;;22.12;57.32;94242.03;5008951;28;20569;-31
2023/11/05 09:09:05;;;;;;;1.10;1.10;;;;;;;22.12;57.46;94254.84;5006250;28;20559;-27
2023/11/05 09:11:33;;;;;;;1.20;1.10;;;;;;;22.12;57.65;94260.78;5003447;28;20223;-28
2023/11/05 09:14:00;;;;;;;1.30;1.20;;;;;;;22.13;57.58;94264.16;5011864;28;20209;-31
2023/11/05 09:16:27;;;;;;;1.23;1.20;;;;;;;22.11;57.57;94259.09;5015913;28;20233;-26
2023/11/05 09:18:53;;;;;;;1.53;1.00;;;;;;;22.12;57.58;94265.06;5018988;28;20210;-29
2023/11/05 09:21:20;;;;;;;1.43;1.10;;;;;;;22.10;57.71;94270.22;5011163;28;20298;-27
2023/11/05 09:23:47;;;;;;;1.40;1.30;;;;;;;22.11;57.63;94261.66;5015894;28;20280;-27
2023/11/05 09:26:13;;;;;;;1.43;1.20;;;;;;;22.10;57.71;94275.31;5010006;28;20233;-26
2023/11/05 09:28:40;;;;;;;2.00;1.20;;;;;;;22.11;57.59;94281.28;5028390;28;20206;-27
2023/11/05 09:31:07;;;;;;;1.30;1.20;;;;;;;22.11;57.59;94282.09;5011751;28;20213;-27
2023/11/05 09:33:34;;;;;;;1.17;1.17;;;;;;;22.12;57.58;94282.97;5009916;28;20202;-27
2023/11/05 09:36:01;;;;;;;1.20;0.93;;;;;;;22.12;57.58;94283.81;5007551;28;20652;-27
2023/11/05 09:38:27;;;;;;;1.10;1.10;;;;;;;22.11;57.73;94279.56;5017443;28;20206;-26
2023/11/05 09:40:54;;;;;;;1.20;1.10;;;;;;;22.12;57.74;94285.50;5013212;28;20264;-29
2023/11/05 09:43:21;;;;;;;1.07;1.07;;;;;;;22.12;57.74;94276.13;5010266;28;20209;-31
2023/11/05 09:45:52;;;;;;;1.00;1.00;;;;;;;22.11;57.87;94284.66;5020880;28;20280;-26
2023/11/05 09:48:18;;;;;;;1.13;1.10;;;;;;;22.13;57.72;94290.59;5012118;28;20205;-29
2023/11/05 09:50:45;;;;;;;1.47;1.10;;;;;;;22.13;57.78;94298.25;5018962;28;20226;-27
2023/11/05 09:53:14;;;;;;;1.37;1.03;;;;;;;22.12;57.86;94305.97;5016432;28;20202;-26
2023/11/05 09:55:42;;;;;;;1.00;1.00;;;;;;;22.03;57.94;94301.06;5012034;28;20198;-31
2023/11/05 09:58:09;;;;;;;1.07;1.00;;;;;;;22.12;57.88;94306.81;5014945;28;20198;-27
2023/11/05 10:00:36;;;;;;;1.00;1.00;;;;;;;22.12;57.77;94319.63;5018036;28;20217;-27
2023/11/05 10:03:07;;;;;;;1.37;1.20;;;;;;;22.12;57.70;94326.44;5012087;28;20232;-28
2023/11/05 10:05:37;;;;;;;1.00;1.00;;;;;;;22.11;57.70;94330.69;5017285;28;20202;-26
2023/11/05 10:08:05;;;;;;;1.00;1.00;;;;;;;22.12;57.88;94336.66;5021139;28;20249;-27
2023/11/05 10:10:32;;;;;;;1.20;1.10;;;;;;;22.13;57.93;94338.34;5016242;28;20583;-30
2023/11/05 10:12:59;;;;;;;1.30;1.20;;;;;;;22.13;57.95;94351.13;5019073;28;20264;-26
2023/11/05 10:15:25;;;;;;;1.33;1.20;;;;;;;22.11;57.41;94351.16;5014796;28;20236;-30
2023/11/05 10:17:53;;;;;;;1.00;1.00;;;;;;;22.11;57.45;94366.50;5012130;28;20218;-28
2023/11/05 10:20:21;;;;;;;5.60;1.20;;;;;;;22.11;57.50;94365.69;5012168;28;20636;-26
2023/11/05 10:23:06;;;;;;;1.33;1.20;;;;;;;22.11;57.67;94381.84;5012641;28;20199;-26
2023/11/05 10:25:36;;;;;;;1.00;1.00;;;;;;;22.10;57.74;94369.94;5010958;28;20221;-26
2023/11/05 10:28:03;;;;;;;1.00;1.00;;;;;;;22.11;57.70;94379.28;5017682;28;20256;-26
2023/11/05 10:30:33;;;;;;;1.27;1.10;;;;;;;22.12;57.82;94375.88;5016254;28;20245;-26
2023/11/05 10:33:00;;;;;;;1.00;0.97;;;;;;;22.13;57.71;94379.25;5012307;28;20205;-26
2023/11/05 10:35:32;;;;;;;1.07;1.07;;;;;;;22.13;57.87;94387.78;5012927;28;20233;-26
2023/11/05 10:37:59;;;;;;;0.93;0.93;;;;;;;22.14;57.91;94391.19;5016413;28;20226;-31
2023/11/05 10:40:25;;;;;;;1.10;1.10;;;;;;;22.12;57.88;94391.22;5014222;28;20301;-26
2023/11/05 10:42:52;;;;;;;1.10;1.00;;;;;;;22.13;57.78;94389.47;5019959;28;20285;-26
2023/11/05 10:45:21;;;;;;;1.33;1.23;;;;;;;22.13;57.90;94397.16;5016600;28;20233;-27
2023/11/05 10:47:50;;;;;;;1.17;1.07;;;;;;;22.13;57.87;94408.22;5020943;28;20190;-26
2023/11/05 10:50:19;;;;;;;1.27;1.17;;;;;;;22.13;57.94;94399.72;5022732;28;20222;-29
2023/11/05 10:52:46;;;;;;;2.00;1.20;;;;;;;22.13;57.96;94415.91;5014346;28;20203;-30
2023/11/05 10:55:13;;;;;;;1.17;1.00;;;;;;;22.13;57.96;94409.94;5013748;28;20198;-26
2023/11/05 10:57:43;;;;;;;1.30;1.10;;;;;;;22.13;58.07;94422.72;5015009;28;20623;-28
2023/11/05 11:00:15;;;;;;;1.17;1.10;;;;;;;22.14;58.16;94426.97;5017511;28;20639;-30
2023/11/05 11:02:42;;;;;;;1.40;1.30;;;;;;;22.14;57.94;94438.03;5014435;28;20194;-27
2023/11/05 11:05:20;;;;;;;1.03;1.00;;;;;;;22.14;58.04;94432.09;5019382;28;20656;-28
2023/11/05 11:07:48;;;;;;;1.30;1.20;;;;;;;22.15;58.08;94441.44;5019163;28;20317;-27
2023/11/05 11:10:21;;;;;;;1.00;1.00;;;;;;;22.15;58.09;94454.22;5016849;28;20217;-27
2023/11/05 11:12:47;;;;;;;1.43;1.20;;;;;;;22.15;57.92;94454.22;5015931;28;20570;-26
2023/11/05 11:15:33;;;;;;;0.90;0.90;;;;;;;22.14;58.13;94458.50;5020621;28;20234;-26
2023/11/05 11:18:05;;;;;;;1.10;1.00;;;;;;;22.14;58.10;94465.34;5015939;28;20265;-26
2023/11/05 11:20:32;;;;;;;1.40;1.30;;;;;;;22.13;58.04;94456.81;5017181;28;20264;-26
2023/11/05 11:23:02;;;;;;;1.03;1.03;;;;;;;22.13;57.95;94454.25;5024179;28;20240;-32
2023/11/05 11:25:33;;;;;;;1.30;1.20;;;;;;;22.12;58.02;94450.03;5018385;28;20259;-27
2023/11/05 11:28:00;;;;;;;1.40;1.30;;;;;;;22.13;58.10;94455.97;5015207;28;20206;-26
2023/11/05 11:30:26;;;;;;;1.27;1.17;;;;;;;22.14;58.13;94470.47;5017714;28;20317;-29
2023/11/05 11:32:53;;;;;;;1.23;1.13;;;;;;;22.13;58.02;94469.59;5023238;28;20206;-32
2023/11/05 11:35:21;;;;;;;1.30;1.20;;;;;;;22.14;58.11;94478.13;5014917;28;20198;-27